createdAt,value
2023-02-28T00:01:30.281Z,100291.90
2023-02-28T00:04:02.483Z,100293.75
2023-02-28T00:06:34.566Z,100290.31
2023-02-28T00:09:06.634Z,100286.04
2023-02-28T00:11:38.964Z,100283.61
2023-02-28T00:14:10.925Z,100280.28
2023-02-28T00:16:43.025Z,100273.52
2023-02-28T00:19:15.136Z,100268.45
2023-02-28T00:21:47.267Z,100264.15
2023-02-28T00:24:19.387Z,100265.90
2023-02-28T00:26:51.473Z,100270.02
2023-02-28T00:29:23.779Z,100265.74
2023-02-28T00:31:56.062Z,100264.88
2023-02-28T00:34:28.214Z,100263.90
2023-02-28T00:37:00.271Z,100263.80
2023-02-28T00:39:32.295Z,100260.41
2023-02-28T00:42:04.838Z,100252.70
2023-02-28T00:44:36.758Z,100253.52
2023-02-28T00:47:08.689Z,100255.06
2023-02-28T00:49:40.867Z,100246.42
2023-02-28T00:52:14.312Z,100244.06
2023-02-28T00:54:46.254Z,100255.84
2023-02-28T00:57:19.685Z,100244.61
2023-02-28T00:59:51.651Z,100236.00
2023-02-28T01:02:24.768Z,100224.06
2023-02-28T01:04:58.066Z,100222.45
2023-02-28T01:07:30.031Z,100217.30
2023-02-28T01:10:01.968Z,100212.26
2023-02-28T01:12:33.955Z,100210.55
2023-02-28T01:15:06.872Z,100207.24
2023-02-28T01:17:39.001Z,100201.23
2023-02-28T01:20:12.015Z,100195.27
2023-02-28T01:22:45.025Z,100184.27
2023-02-28T01:25:17.539Z,100173.23
2023-02-28T01:27:49.480Z,100168.84
2023-02-28T01:30:21.753Z,100160.23
2023-02-28T01:32:54.579Z,100169.59
2023-02-28T01:35:26.644Z,100159.36
2023-02-28T01:38:09.530Z,100152.67
2023-02-28T01:40:32.674Z,100150.83
2023-02-28T01:43:04.424Z,100145.87
2023-02-28T01:45:37.854Z,100144.00
2023-02-28T01:48:11.827Z,100146.50
2023-02-28T01:50:47.306Z,100123.59
2023-02-28T01:53:22.181Z,100121.72
2023-02-28T01:55:56.537Z,100120.70
2023-02-28T01:58:28.558Z,100115.68
2023-02-28T02:01:01.065Z,100117.95
2023-02-28T02:03:33.935Z,100113.66
2023-02-28T02:06:06.698Z,100108.48
2023-02-28T02:08:40.197Z,100105.09
2023-02-28T02:11:15.590Z,100096.52
2023-02-28T02:13:56.647Z,100097.33
2023-02-28T02:17:03.276Z,100094.87
2023-02-28T02:20:06.418Z,100093.19
2023-02-28T02:22:50.136Z,100094.96
2023-02-28T02:25:37.114Z,100088.33
2023-02-28T02:28:26.958Z,100085.02
2023-02-28T02:31:17.101Z,100085.08
2023-02-28T02:34:18.860Z,100071.64
2023-02-28T02:37:12.717Z,100068.09
2023-02-28T02:39:56.658Z,100074.08
2023-02-28T02:42:37.361Z,100068.15
2023-02-28T02:45:12.445Z,100069.02
2023-02-28T02:47:47.254Z,100058.83
2023-02-28T02:50:22.200Z,100041.81
2023-02-28T02:52:58.017Z,100044.28
2023-02-28T02:55:32.459Z,100038.47
2023-02-28T02:58:08.379Z,100043.50
2023-02-28T03:00:43.683Z,100026.48
2023-02-28T03:03:18.749Z,100037.41
2023-02-28T03:05:52.693Z,100032.20
2023-02-28T03:08:25.053Z,100022.80
2023-02-28T03:11:02.568Z,100017.64
2023-02-28T03:14:00.202Z,100010.84
2023-02-28T03:16:50.918Z,100008.28
2023-02-28T03:19:37.798Z,100006.52
2023-02-28T03:22:19.011Z,100007.33
2023-02-28T03:24:53.785Z,99992.84
2023-02-28T03:27:48.328Z,99990.41
2023-02-28T03:30:45.829Z,99984.43
2023-02-28T03:33:26.635Z,99980.10
2023-02-28T03:36:02.064Z,99967.36
2023-02-28T03:38:43.618Z,99982.73
2023-02-28T03:41:18.822Z,99967.50
2023-02-28T03:44:02.809Z,99952.19
2023-02-28T03:46:37.844Z,99961.38
2023-02-28T03:49:18.460Z,99961.44
2023-02-28T03:51:53.155Z,99951.41
2023-02-28T03:54:28.082Z,99964.86
2023-02-28T03:57:06.051Z,99938.39
2023-02-28T03:59:40.985Z,99931.65
2023-02-28T04:02:13.849Z,99928.20
2023-02-28T04:04:47.889Z,99923.24
2023-02-28T04:07:19.994Z,99910.34
2023-02-28T04:09:52.246Z,99910.42
2023-02-28T04:12:24.860Z,99912.11
2023-02-28T04:14:57.538Z,99912.03
2023-02-28T04:17:29.788Z,99902.66
2023-02-28T04:20:01.919Z,99910.21
2023-02-28T04:22:34.246Z,99901.70
2023-02-28T04:25:07.437Z,99899.98
2023-02-28T04:27:39.784Z,99899.31
2023-02-28T04:30:13.295Z,99889.86
2023-02-28T04:32:45.299Z,99889.76
2023-02-28T04:35:17.772Z,99887.30
2023-02-28T04:37:50.303Z,99879.67
2023-02-28T04:40:23.413Z,99876.33
2023-02-28T04:42:56.374Z,99884.82
2023-02-28T04:45:30.346Z,99858.48
2023-02-28T04:48:02.364Z,99865.60
2023-02-28T04:50:34.855Z,99851.09
2023-02-28T04:53:07.515Z,99843.47
2023-02-28T04:55:41.192Z,99845.23
2023-02-28T04:58:14.038Z,99832.49
2023-02-28T05:00:46.474Z,99838.50
2023-02-28T05:03:18.915Z,99813.91
2023-02-28T05:05:51.974Z,99835.41
2023-02-28T05:08:26.594Z,99810.87
2023-02-28T05:10:59.121Z,99810.14
2023-02-28T05:13:32.843Z,99805.23
2023-02-28T05:16:04.560Z,99797.02
2023-02-28T05:18:36.840Z,99789.50
2023-02-28T05:21:18.325Z,99788.70
2023-02-28T05:23:50.982Z,99775.91
2023-02-28T05:26:24.083Z,99771.61
2023-02-28T05:28:56.677Z,99770.78
2023-02-28T05:31:29.445Z,99764.87
2023-02-28T05:34:02.261Z,99765.77
2023-02-28T05:36:34.938Z,99734.03
2023-02-28T05:39:10.571Z,99724.53
2023-02-28T05:41:46.697Z,99737.42
2023-02-28T05:44:18.883Z,99718.56
2023-02-28T05:46:51.340Z,99709.11
2023-02-28T05:49:24.168Z,99713.29
2023-02-28T05:51:56.601Z,99715.80
2023-02-28T05:54:28.566Z,99699.42
2023-02-28T05:57:01.263Z,99701.92
2023-02-28T05:59:33.596Z,99692.45
2023-02-28T06:02:06.793Z,99689.94
2023-02-28T06:04:39.162Z,99691.77
2023-02-28T06:07:12.060Z,99683.12
2023-02-28T06:09:44.435Z,99676.20
2023-02-28T06:12:17.226Z,99650.48
2023-02-28T06:14:49.742Z,99648.62
2023-02-28T06:17:22.010Z,99661.12
2023-02-28T06:19:54.240Z,99654.55
2023-02-28T06:22:26.167Z,99643.81
2023-02-28T06:24:59.189Z,99635.97
2023-02-28T06:27:34.943Z,99640.47
2023-02-28T06:30:08.013Z,99637.31
2023-02-28T06:32:42.179Z,99619.64
2023-02-28T06:35:15.097Z,99616.44
2023-02-28T06:37:48.396Z,99619.28
2023-02-28T06:40:20.873Z,99625.47
2023-02-28T06:42:53.376Z,99612.74
2023-02-28T06:45:27.214Z,99605.95
2023-02-28T06:48:01.436Z,99601.75
2023-02-28T06:50:34.734Z,99596.61
2023-02-28T06:53:07.144Z,99579.55
2023-02-28T06:55:41.452Z,99564.06
2023-02-28T06:58:17.536Z,99576.91
2023-02-28T07:00:53.158Z,99550.30
2023-02-28T07:03:25.745Z,99557.14
2023-02-28T07:05:58.295Z,99547.66
2023-02-28T07:08:30.807Z,99543.31
2023-02-28T07:11:04.511Z,99539.84
2023-02-28T07:13:38.301Z,99533.86
2023-02-28T07:16:13.991Z,99504.66
2023-02-28T07:18:46.628Z,99514.00
2023-02-28T07:21:18.511Z,99510.53
2023-02-28T07:23:50.554Z,99507.87
2023-02-28T07:26:23.526Z,99511.20
2023-02-28T07:28:56.149Z,99499.05
2023-02-28T07:31:29.098Z,99493.66
2023-02-28T07:34:02.005Z,99479.84
2023-02-28T07:36:34.493Z,99492.72
2023-02-28T07:39:06.751Z,99487.61
2023-02-28T07:41:40.539Z,99458.48
2023-02-28T07:44:13.727Z,99482.37
2023-02-28T07:46:46.509Z,99490.06
2023-02-28T07:49:19.133Z,99479.73
2023-02-28T07:51:51.208Z,99469.25
2023-02-28T07:54:23.456Z,99457.02
2023-02-28T07:56:55.845Z,99470.66
2023-02-28T07:59:29.507Z,99460.91
2023-02-28T08:02:02.273Z,99467.66
2023-02-28T08:04:37.191Z,99468.56
2023-02-28T08:07:10.540Z,99455.53
2023-02-28T08:09:43.578Z,99453.71
2023-02-28T08:12:16.074Z,99456.44
2023-02-28T08:14:48.453Z,99434.22
2023-02-28T08:17:20.873Z,99427.19
2023-02-28T08:19:53.091Z,99429.83
2023-02-28T08:22:25.559Z,99414.33
2023-02-28T08:24:58.120Z,99390.91
2023-02-28T08:27:30.718Z,99393.22
2023-02-28T08:30:04.400Z,99386.11
2023-02-28T08:32:36.778Z,99374.70
2023-02-28T08:35:10.441Z,99377.38
2023-02-28T08:37:43.004Z,99412.61
2023-02-28T08:40:16.862Z,99448.66
2023-02-28T08:42:49.653Z,99460.95
2023-02-28T08:45:22.135Z,99438.12
2023-02-28T08:47:55.788Z,99440.22
2023-02-28T08:50:27.671Z,99438.39
2023-02-28T08:53:01.523Z,99419.78
2023-02-28T08:55:33.802Z,99434.47
2023-02-28T08:58:06.254Z,99431.95
2023-02-28T09:00:38.857Z,99424.11
2023-02-28T09:03:12.416Z,99418.93
2023-02-28T09:05:46.234Z,99413.17
2023-02-28T09:08:18.402Z,99401.02
2023-02-28T09:10:50.511Z,99388.11
2023-02-28T09:13:23.106Z,99389.76
2023-02-28T09:15:56.013Z,99374.09
2023-02-28T09:18:28.730Z,99373.95
2023-02-28T09:21:01.082Z,99371.95
2023-02-28T09:23:33.424Z,99380.20
2023-02-28T09:26:06.283Z,99360.66
2023-02-28T09:28:38.505Z,99362.32
2023-02-28T09:31:16.707Z,99373.20
2023-02-28T09:33:53.255Z,99390.22
2023-02-28T09:36:41.591Z,99378.16
2023-02-28T09:39:01.560Z,99385.23
2023-02-28T09:41:44.305Z,99372.27
2023-02-28T09:44:19.606Z,99379.98
2023-02-28T09:46:54.645Z,99365.69
2023-02-28T09:49:29.594Z,99351.91
2023-02-28T09:52:10.431Z,99340.39
2023-02-28T09:54:42.945Z,99345.73
2023-02-28T09:57:23.402Z,99342.55
2023-02-28T09:59:58.361Z,99333.94
2023-02-28T10:02:59.531Z,99335.59
2023-02-28T10:05:34.655Z,99319.06
2023-02-28T10:08:23.138Z,99313.61
2023-02-28T10:10:58.330Z,99315.91
2023-02-28T10:13:35.982Z,99302.18
2023-02-28T10:16:17.142Z,99303.06
2023-02-28T10:18:54.674Z,99301.17
2023-02-28T10:21:45.700Z,99286.10
2023-02-28T10:24:26.833Z,99287.19
2023-02-28T10:27:18.685Z,99292.34
2023-02-28T10:29:56.297Z,99282.85
2023-02-28T10:32:37.393Z,99273.58
2023-02-28T10:35:18.230Z,99271.67
2023-02-28T10:37:56.554Z,99268.23
2023-02-28T10:40:39.465Z,99266.40
2023-02-28T10:43:20.961Z,99269.75
2023-02-28T10:46:05.056Z,99264.73
2023-02-28T10:48:45.908Z,99263.73
2023-02-28T10:51:20.832Z,99254.36
2023-02-28T10:54:02.935Z,99255.10
2023-02-28T10:56:30.225Z,99248.33
2023-02-28T10:59:21.493Z,99244.81
2023-02-28T11:01:54.479Z,99230.95
2023-02-28T11:04:37.263Z,99242.17
2023-02-28T11:07:22.965Z,99217.39
2023-02-28T11:09:57.292Z,99241.20
2023-02-28T11:12:34.021Z,99218.99
2023-02-28T11:15:25.109Z,99214.27
2023-02-28T11:18:00.160Z,99222.00
2023-02-28T11:20:34.934Z,99217.73
2023-02-28T11:23:09.468Z,99206.38
2023-02-28T11:25:42.496Z,99220.09
2023-02-28T11:28:32.504Z,99200.16
2023-02-28T11:31:08.069Z,99209.38
2023-02-28T11:33:46.221Z,99210.03
2023-02-28T11:36:21.594Z,99201.34
2023-02-28T11:38:58.806Z,99206.26
2023-02-28T11:41:41.460Z,99202.44
2023-02-28T11:44:25.560Z,99193.00
2023-02-28T11:47:02.066Z,99183.13
2023-02-28T11:49:54.842Z,99194.46
2023-02-28T11:52:38.952Z,99185.81
2023-02-28T11:55:32.159Z,99180.24
2023-02-28T11:58:23.945Z,99181.42
2023-02-28T12:01:23.166Z,99172.91
2023-02-28T12:04:10.144Z,99173.22
2023-02-28T12:06:53.779Z,99166.39
2023-02-28T12:09:40.467Z,99158.12
2023-02-28T12:12:21.234Z,99154.70
2023-02-28T12:15:28.940Z,99159.81
2023-02-28T12:18:16.042Z,99158.19
2023-02-28T12:20:53.636Z,99157.34
2023-02-28T12:23:45.230Z,99167.70
2023-02-28T12:26:23.472Z,99160.97
2023-02-28T12:28:58.472Z,99146.11
2023-02-28T12:31:33.591Z,99142.05
2023-02-28T12:34:08.725Z,99148.13
2023-02-28T12:36:43.623Z,99146.58
2023-02-28T12:39:19.580Z,99147.36
2023-02-28T12:41:55.772Z,99127.84
2023-02-28T12:44:55.272Z,99121.91
2023-02-28T12:47:27.596Z,99123.72
2023-02-28T12:50:03.066Z,99125.45
2023-02-28T12:52:55.983Z,99117.64
2023-02-28T12:55:47.443Z,99116.20
2023-02-28T12:58:40.266Z,99098.78
2023-02-28T13:01:36.437Z,99067.12
2023-02-28T13:04:20.402Z,99078.23
2023-02-28T13:07:04.079Z,99081.64
2023-02-28T13:09:36.960Z,99067.95
2023-02-28T13:12:19.118Z,99076.58
2023-02-28T13:14:52.854Z,99071.30
2023-02-28T13:17:27.340Z,99068.88
2023-02-28T13:20:01.501Z,99073.82
2023-02-28T13:22:45.328Z,99071.42
2023-02-28T13:25:25.998Z,99077.38
2023-02-28T13:28:00.808Z,99084.25
2023-02-28T13:30:57.143Z,99076.43
2023-02-28T13:33:39.220Z,99079.90
2023-02-28T13:36:14.569Z,99069.55
2023-02-28T13:38:54.108Z,99067.77
2023-02-28T13:41:39.963Z,99051.44
2023-02-28T13:44:25.373Z,99046.95
2023-02-28T13:47:04.041Z,99040.84
2023-02-28T13:49:38.516Z,99038.20
2023-02-28T13:52:20.964Z,99035.56
2023-02-28T13:55:06.201Z,99036.36
2023-02-28T13:57:59.049Z,99021.67
2023-02-28T14:00:45.998Z,99044.06
2023-02-28T14:03:30.167Z,99025.08
2023-02-28T14:06:20.348Z,99027.37
2023-02-28T14:09:15.228Z,99040.30
2023-02-28T14:11:48.567Z,99031.89
2023-02-28T14:14:41.453Z,99050.82
2023-02-28T14:17:19.252Z,99038.68
2023-02-28T14:19:51.417Z,99041.10
2023-02-28T14:22:49.332Z,99036.57
2023-02-28T14:25:30.579Z,99028.00
2023-02-28T14:28:21.923Z,99012.89
2023-02-28T14:31:06.409Z,99012.28
2023-02-28T14:33:44.709Z,99015.20
2023-02-28T14:36:22.497Z,99012.81
2023-02-28T14:38:57.580Z,99016.75
2023-02-28T14:41:39.608Z,99007.66
2023-02-28T14:44:26.797Z,98998.42
2023-02-28T14:47:03.128Z,98997.63
2023-02-28T14:49:48.681Z,98991.64
2023-02-28T14:52:23.823Z,98992.50
2023-02-28T14:55:04.805Z,98985.25
2023-02-28T14:57:39.639Z,98985.29
2023-02-28T15:00:17.876Z,98988.99
2023-02-28T15:02:50.694Z,98983.11
2023-02-28T15:05:34.706Z,98982.97
2023-02-28T15:08:16.321Z,98982.15
2023-02-28T15:10:57.659Z,98993.42
2023-02-28T15:13:35.621Z,98982.81
2023-02-28T15:16:13.605Z,99002.81
2023-02-28T15:18:51.564Z,98989.92
2023-02-28T15:21:33.200Z,98987.08
2023-02-28T15:24:09.805Z,98985.29
2023-02-28T15:26:44.995Z,98987.01
2023-02-28T15:29:20.439Z,98981.09
2023-02-28T15:32:04.796Z,98967.22
2023-02-28T15:34:43.434Z,98980.06
2023-02-28T15:37:32.449Z,98975.66
2023-02-28T15:40:22.278Z,98967.95
2023-02-28T15:43:18.088Z,98967.98
2023-02-28T15:45:54.835Z,98961.83
2023-02-28T15:48:32.883Z,98959.07
2023-02-28T15:51:10.797Z,98954.73
2023-02-28T15:53:51.375Z,98959.83
2023-02-28T15:56:26.524Z,98945.84
2023-02-28T15:59:00.711Z,98957.71
2023-02-28T16:01:33.825Z,98950.65
2023-02-28T16:04:20.507Z,98948.48
2023-02-28T16:07:06.761Z,98949.56
2023-02-28T16:09:39.126Z,98940.20
2023-02-28T16:12:13.817Z,98941.93
2023-02-28T16:14:46.500Z,98934.14
2023-02-28T16:17:27.814Z,98936.80
2023-02-28T16:20:00.091Z,98924.72
2023-02-28T16:22:33.208Z,98929.88
2023-02-28T16:25:05.619Z,98932.42
2023-02-28T16:27:39.918Z,98930.22
2023-02-28T16:30:12.945Z,98934.44
2023-02-28T16:32:46.055Z,98954.17
2023-02-28T16:35:19.185Z,98943.17
2023-02-28T16:37:52.830Z,98922.50
2023-02-28T16:40:28.932Z,98928.27
2023-02-28T16:43:02.995Z,98931.47
2023-02-28T16:45:35.178Z,98930.17
2023-02-28T16:48:07.267Z,98931.55
2023-02-28T16:50:39.971Z,98923.29
2023-02-28T16:53:12.693Z,98926.06
2023-02-28T16:55:45.017Z,98922.77
2023-02-28T16:58:20.317Z,98924.38
2023-02-28T17:00:53.588Z,98928.45
2023-02-28T17:03:33.547Z,98921.91
2023-02-28T17:06:02.268Z,98907.39
2023-02-28T17:08:34.745Z,98911.80
2023-02-28T17:11:09.085Z,98904.95
2023-02-28T17:13:41.403Z,98911.09
2023-02-28T17:16:21.976Z,98912.92
2023-02-28T17:18:55.512Z,98913.18
2023-02-28T17:21:27.760Z,98900.84
2023-02-28T17:24:00.241Z,98921.75
2023-02-28T17:26:33.126Z,98907.98
2023-02-28T17:29:07.331Z,98917.30
2023-02-28T17:31:41.296Z,98906.16
2023-02-28T17:34:14.841Z,98910.78
2023-02-28T17:36:52.062Z,98911.16
2023-02-28T17:39:26.795Z,98909.84
2023-02-28T17:41:59.056Z,98913.26
2023-02-28T17:44:31.213Z,98916.70
2023-02-28T17:47:03.841Z,98934.66
2023-02-28T17:49:36.369Z,98953.65
2023-02-28T17:52:08.754Z,98970.94
2023-02-28T17:54:40.791Z,98972.70
2023-02-28T17:57:15.932Z,98971.59
2023-02-28T17:59:48.454Z,98982.23
2023-02-28T18:02:20.649Z,98996.96
2023-02-28T18:04:52.508Z,98979.99
2023-02-28T18:07:26.201Z,98972.06
2023-02-28T18:09:58.174Z,98991.03
2023-02-28T18:12:30.862Z,98975.25
2023-02-28T18:15:03.325Z,98977.86
2023-02-28T18:17:35.379Z,98970.49
2023-02-28T18:20:08.540Z,98975.89
2023-02-28T18:22:41.888Z,98978.55
2023-02-28T18:25:18.486Z,98977.42
2023-02-28T18:27:59.334Z,98978.61
2023-02-28T18:30:34.722Z,98981.88
2023-02-28T18:33:07.103Z,98979.63
2023-02-28T18:35:39.558Z,98975.47
2023-02-28T18:38:15.192Z,98981.63
2023-02-28T18:40:56.127Z,98980.63
2023-02-28T18:43:28.925Z,98985.86
2023-02-28T18:46:10.133Z,98983.45
2023-02-28T18:48:42.831Z,98985.95
2023-02-28T18:51:17.864Z,98987.52
2023-02-28T18:53:50.233Z,98990.19
2023-02-28T18:56:24.903Z,98993.48
2023-02-28T18:58:57.067Z,98990.01
2023-02-28T19:01:32.180Z,98975.05
2023-02-28T19:04:05.445Z,98978.44
2023-02-28T19:06:38.378Z,98979.27
2023-02-28T19:09:11.607Z,98990.31
2023-02-28T19:11:43.796Z,98997.92
2023-02-28T19:14:15.863Z,98997.92
2023-02-28T19:16:48.038Z,98994.40
2023-02-28T19:19:20.234Z,98990.98
2023-02-28T19:21:52.142Z,98990.96
2023-02-28T19:24:24.160Z,99003.64
2023-02-28T19:26:56.068Z,98994.37
2023-02-28T19:29:28.091Z,98985.50
2023-02-28T19:32:00.244Z,98990.72
2023-02-28T19:34:33.154Z,98973.55
2023-02-28T19:37:05.267Z,98983.94
2023-02-28T19:39:43.713Z,98983.08
2023-02-28T19:42:18.667Z,98985.93
2023-02-28T19:44:51.165Z,98989.30
2023-02-28T19:47:23.091Z,98977.39
2023-02-28T19:49:55.691Z,98986.11
2023-02-28T19:52:27.590Z,98975.30
2023-02-28T19:54:59.778Z,98966.88
2023-02-28T19:57:33.455Z,98980.80
2023-02-28T20:00:05.818Z,98976.61
2023-02-28T20:02:39.807Z,98981.90
2023-02-28T20:05:11.838Z,98976.19
2023-02-28T20:07:45.187Z,98985.95
2023-02-28T20:10:17.215Z,98979.89
2023-02-28T20:12:49.737Z,98978.44
2023-02-28T20:15:21.785Z,98982.82
2023-02-28T20:17:53.869Z,98975.18
2023-02-28T20:20:26.214Z,98982.31
2023-02-28T20:22:58.167Z,98969.64
2023-02-28T20:25:30.428Z,98981.77
2023-02-28T20:28:02.488Z,98987.72
2023-02-28T20:30:34.672Z,98993.72
2023-02-28T20:33:07.198Z,98981.04
2023-02-28T20:35:39.519Z,98982.89
2023-02-28T20:38:11.960Z,98983.80
2023-02-28T20:40:43.951Z,98980.69
2023-02-28T20:43:16.282Z,98979.73
2023-02-28T20:46:01.469Z,98973.84
2023-02-28T20:48:36.052Z,98973.22
2023-02-28T20:51:08.931Z,98981.83
2023-02-28T20:53:41.042Z,98980.27
2023-02-28T20:56:18.869Z,98993.13
2023-02-28T20:58:52.711Z,98985.38
2023-02-28T21:01:27.179Z,98994.02
2023-02-28T21:04:07.114Z,98995.03
2023-02-28T21:06:43.327Z,98986.52
2023-02-28T21:09:16.823Z,98986.61
2023-02-28T21:11:49.563Z,98991.81
2023-02-28T21:14:23.917Z,98983.33
2023-02-28T21:16:55.874Z,98992.86
2023-02-28T21:19:27.778Z,98995.52
2023-02-28T21:21:59.754Z,99000.56
2023-02-28T21:24:32.120Z,98990.25
2023-02-28T21:27:04.083Z,98992.02
2023-02-28T21:29:36.057Z,98994.66
2023-02-28T21:32:08.365Z,98992.09
2023-02-28T21:34:41.694Z,98991.45
2023-02-28T21:37:13.634Z,99001.75
2023-02-28T21:39:46.458Z,99003.48
2023-02-28T21:42:18.814Z,99003.41
2023-02-28T21:44:50.801Z,99000.91
2023-02-28T21:47:22.684Z,99006.94
2023-02-28T21:49:54.684Z,99009.51
2023-02-28T21:52:26.685Z,99011.32
2023-02-28T21:54:58.789Z,99013.03
2023-02-28T21:57:32.738Z,99011.38
2023-02-28T22:00:05.444Z,99015.70
2023-02-28T22:02:39.031Z,99013.21
2023-02-28T22:05:11.189Z,99009.86
2023-02-28T22:07:44.651Z,99019.23
2023-02-28T22:10:16.636Z,99026.09
2023-02-28T22:12:48.715Z,99020.17
2023-02-28T22:15:20.902Z,99021.95
2023-02-28T22:17:54.464Z,99019.36
2023-02-28T22:20:26.415Z,99024.52
2023-02-28T22:22:58.449Z,99015.13
2023-02-28T22:25:30.542Z,99014.27
2023-02-28T22:28:02.379Z,99016.72
2023-02-28T22:30:34.212Z,99015.94
2023-02-28T22:33:06.274Z,99009.19
2023-02-28T22:35:38.348Z,99007.55
2023-02-28T22:38:10.714Z,99009.25
2023-02-28T22:40:43.296Z,99008.45
2023-02-28T22:43:15.385Z,99005.02
2023-02-28T22:45:47.306Z,99004.23
2023-02-28T22:48:19.194Z,99004.28
2023-02-28T22:50:52.527Z,99005.88
2023-02-28T22:53:24.906Z,99001.56
2023-02-28T22:55:57.640Z,99000.77
2023-02-28T22:58:30.130Z,98996.50
2023-02-28T23:01:09.908Z,98993.14
2023-02-28T23:03:42.764Z,99008.54
2023-02-28T23:06:26.659Z,98998.30
2023-02-28T23:09:01.045Z,98998.28
2023-02-28T23:11:36.417Z,98999.25
2023-02-28T23:14:09.625Z,99009.44
2023-02-28T23:16:47.077Z,99001.73
2023-02-28T23:19:31.191Z,98997.48
2023-02-28T23:22:04.928Z,98993.27
2023-02-28T23:24:37.825Z,99003.61
2023-02-28T23:27:09.779Z,99000.23
2023-02-28T23:29:42.373Z,98997.59
2023-02-28T23:32:14.435Z,98985.67
2023-02-28T23:34:46.605Z,98990.00
2023-02-28T23:37:18.797Z,98996.01
2023-02-28T23:39:50.770Z,98984.10
2023-02-28T23:42:22.800Z,98991.84
2023-02-28T23:44:54.788Z,98990.97
2023-02-28T23:47:27.251Z,98997.77
2023-02-28T23:49:59.254Z,98988.39
2023-02-28T23:52:32.984Z,98987.50
2023-02-28T23:55:05.202Z,98990.11
2023-02-28T23:57:37.197Z,98985.84
